createdAt,value
2024-01-11T00:03:25.886Z,61.43
2024-01-11T00:08:33.006Z,69.53
2024-01-11T00:13:40.793Z,65.10
2024-01-11T00:18:48.561Z,70.10
2024-01-11T00:23:53.930Z,60.77
2024-01-11T00:28:59.006Z,64.57
2024-01-11T00:34:07.039Z,60.43
2024-01-11T00:39:13.130Z,55.70
2024-01-11T00:44:18.652Z,59.17
2024-01-11T00:49:26.653Z,55.07
2024-01-11T00:54:31.934Z,65.87
2024-01-11T00:59:39.070Z,56.83
2024-01-11T01:04:57.929Z,58.40
2024-01-11T01:10:03.150Z,53.27
2024-01-11T01:15:11.206Z,55.30
2024-01-11T01:20:21.403Z,60.37
2024-01-11T01:25:27.032Z,60.70
2024-01-11T01:30:32.172Z,61.17
2024-01-11T01:35:40.193Z,63.30
2024-01-11T01:40:45.368Z,61.47
2024-01-11T01:45:52.571Z,65.97
2024-01-11T01:51:00.538Z,54.17
2024-01-11T01:56:09.972Z,54.70
2024-01-11T02:01:15.821Z,47.53
2024-01-11T02:06:26.382Z,54.20
2024-01-11T02:11:34.750Z,49.70
2024-01-11T02:16:40.492Z,54.67
2024-01-11T02:21:50.662Z,45.93
2024-01-11T02:27:06.065Z,47.27
2024-01-11T02:32:11.434Z,55.67
2024-01-11T02:37:17.241Z,57.80
2024-01-11T02:42:24.933Z,53.03
2024-01-11T02:47:31.166Z,42.80
2024-01-11T02:52:39.249Z,49.33
2024-01-11T02:57:47.011Z,47.20
2024-01-11T03:02:53.842Z,45.70
2024-01-11T03:07:58.932Z,57.83
2024-01-11T03:13:07.197Z,45.77
2024-01-11T03:18:12.818Z,52.67
2024-01-11T03:23:18.173Z,40.27
2024-01-11T03:28:26.066Z,41.37
2024-01-11T03:33:31.493Z,36.53
2024-01-11T03:38:38.920Z,36.53
2024-01-11T03:43:53.309Z,37.77
2024-01-11T03:49:00.278Z,38.07
2024-01-11T03:54:05.398Z,39.23
2024-01-11T03:59:15.660Z,46.63
2024-01-11T04:04:20.930Z,40.10
2024-01-11T04:09:26.052Z,41.27
2024-01-11T04:14:33.830Z,57.67
2024-01-11T04:19:38.918Z,54.30
2024-01-11T04:24:47.275Z,60.13
2024-01-11T04:29:54.886Z,50.77
2024-01-11T04:35:00.032Z,55.13
2024-01-11T04:40:05.294Z,43.17
2024-01-11T04:45:16.775Z,44.57
2024-01-11T04:50:23.109Z,36.00
2024-01-11T04:55:28.631Z,37.17
2024-01-11T05:00:36.347Z,37.30
2024-01-11T05:05:41.522Z,34.60
2024-01-11T05:10:46.899Z,40.47
2024-01-11T05:15:56.809Z,33.73
2024-01-11T05:21:01.940Z,38.67
2024-01-11T05:26:07.488Z,43.93
2024-01-11T05:31:17.045Z,41.00
2024-01-11T05:36:23.051Z,41.83
2024-01-11T05:41:28.287Z,40.10
2024-01-11T05:46:36.437Z,42.00
2024-01-11T05:51:41.838Z,42.13
2024-01-11T05:56:46.993Z,44.90
2024-01-11T06:01:55.055Z,42.37
2024-01-11T06:07:00.666Z,45.67
2024-01-11T06:12:05.725Z,45.80
2024-01-11T06:17:14.040Z,37.83
2024-01-11T06:22:19.865Z,43.73
2024-01-11T06:27:26.152Z,42.23
2024-01-11T06:32:34.296Z,39.17
2024-01-11T06:37:39.644Z,40.57
2024-01-11T06:42:44.793Z,39.17
2024-01-11T06:47:53.246Z,39.73
2024-01-11T06:52:58.615Z,44.17
2024-01-11T06:58:04.890Z,35.00
2024-01-11T07:03:13.201Z,44.23
2024-01-11T07:08:21.563Z,39.63
2024-01-11T07:13:26.848Z,52.10
2024-01-11T07:18:38.966Z,53.47
2024-01-11T07:23:44.713Z,52.30
2024-01-11T07:28:49.846Z,39.40
2024-01-11T07:33:57.718Z,35.30
2024-01-11T07:39:02.937Z,40.13
2024-01-11T07:44:08.362Z,42.40
2024-01-11T07:49:16.814Z,42.47
2024-01-11T07:54:22.038Z,57.97
2024-01-11T07:59:29.451Z,50.38
2024-01-11T08:04:40.311Z,44.73
2024-01-11T08:09:46.838Z,47.27
2024-01-11T08:14:52.461Z,43.23
2024-01-11T08:20:00.352Z,55.23
2024-01-11T08:25:06.789Z,45.07
2024-01-11T08:30:14.957Z,41.93
2024-01-11T08:35:22.925Z,47.47
2024-01-11T08:40:28.227Z,46.23
2024-01-11T08:45:33.671Z,49.77
2024-01-11T08:50:57.709Z,44.43
2024-01-11T08:56:06.752Z,52.60
2024-01-11T09:01:15.034Z,54.53
2024-01-11T09:06:23.080Z,52.40
2024-01-11T09:11:28.246Z,56.70
2024-01-11T09:16:34.229Z,59.60
2024-01-11T09:21:42.656Z,65.20
2024-01-11T09:26:47.970Z,55.13
2024-01-11T09:31:56.762Z,66.77
2024-01-11T09:37:05.105Z,61.07
2024-01-11T09:42:12.373Z,66.77
2024-01-11T09:47:21.704Z,68.10
2024-01-11T09:52:34.458Z,75.47
2024-01-11T09:57:45.537Z,70.83
2024-01-11T10:02:51.216Z,73.90
2024-01-11T10:07:59.169Z,71.70
2024-01-11T10:13:04.317Z,75.63
2024-01-11T10:18:10.108Z,77.93
2024-01-11T10:23:18.611Z,76.03
2024-01-11T10:28:26.333Z,77.53
2024-01-11T10:33:34.776Z,81.80
2024-01-11T10:38:43.917Z,70.67
2024-01-11T10:43:54.420Z,83.27
2024-01-11T10:49:02.623Z,68.90
2024-01-11T10:54:12.102Z,76.37
2024-01-11T10:59:20.924Z,75.60
2024-01-11T11:04:27.022Z,68.43
2024-01-11T11:09:38.245Z,66.80
2024-01-11T11:15:06.186Z,72.73
2024-01-11T11:20:26.797Z,68.80
2024-01-11T11:25:40.612Z,69.70
2024-01-11T11:30:50.145Z,68.07
2024-01-11T11:36:07.250Z,68.57
2024-01-11T11:41:22.975Z,61.97
2024-01-11T11:46:32.700Z,65.77
2024-01-11T11:51:43.905Z,65.27
2024-01-11T11:56:55.237Z,61.27
2024-01-11T12:02:04.988Z,66.43
2024-01-11T12:07:12.784Z,65.20
2024-01-11T12:12:22.728Z,69.27
2024-01-11T12:17:28.439Z,62.97
2024-01-11T12:22:35.853Z,60.77
2024-01-11T12:27:46.486Z,67.33
2024-01-11T12:32:57.061Z,65.17
2024-01-11T12:38:05.655Z,68.10
2024-01-11T12:43:16.687Z,62.60
2024-01-11T12:48:25.945Z,65.20
2024-01-11T12:53:39.881Z,68.43
2024-01-11T12:59:10.184Z,62.30
2024-01-11T13:04:16.484Z,60.43
2024-01-11T13:09:21.869Z,64.40
2024-01-11T13:14:30.421Z,69.53
2024-01-11T13:19:35.568Z,71.67
2024-01-11T13:24:40.731Z,63.87
2024-01-11T13:29:52.190Z,59.97
2024-01-11T13:35:00.542Z,60.30
2024-01-11T13:40:06.245Z,60.60
2024-01-11T13:45:16.135Z,58.50
2024-01-11T13:50:26.313Z,57.60
2024-01-11T13:55:40.051Z,63.97
2024-01-11T14:00:48.788Z,57.60
2024-01-11T14:05:54.323Z,58.50
2024-01-11T14:10:59.757Z,59.57
2024-01-11T14:16:19.857Z,58.93
2024-01-11T14:21:26.200Z,60.03
2024-01-11T14:26:36.358Z,58.97
2024-01-11T14:31:44.391Z,58.67
2024-01-11T14:36:52.198Z,56.63
2024-01-11T14:41:57.388Z,55.93
2024-01-11T14:47:05.661Z,58.57
2024-01-11T14:52:10.861Z,57.00
2024-01-11T14:57:16.651Z,59.37
2024-01-11T15:02:25.782Z,65.03
2024-01-11T15:07:32.362Z,58.13
2024-01-11T15:12:38.099Z,68.37
2024-01-11T15:17:47.086Z,54.70
2024-01-11T15:22:52.335Z,63.93
2024-01-11T15:27:57.951Z,60.37
2024-01-11T15:33:08.189Z,61.67
2024-01-11T15:38:13.471Z,60.33
2024-01-11T15:43:20.964Z,59.03
2024-01-11T15:48:28.788Z,66.37
2024-01-11T15:53:34.965Z,59.53
2024-01-11T15:58:40.761Z,67.30
2024-01-11T16:03:50.983Z,69.17
2024-01-11T16:08:57.414Z,63.90
2024-01-11T16:14:03.134Z,75.30
2024-01-11T16:19:13.320Z,65.23
2024-01-11T16:24:19.774Z,68.60
2024-01-11T16:29:25.212Z,76.93
2024-01-11T16:34:34.221Z,62.60
2024-01-11T16:39:41.680Z,70.57
2024-01-11T16:44:47.072Z,67.13
2024-01-11T16:49:55.367Z,68.23
2024-01-11T16:55:00.468Z,72.17
2024-01-11T17:00:08.858Z,65.13
2024-01-11T17:05:16.775Z,69.03
2024-01-11T17:10:23.826Z,66.40
2024-01-11T17:15:29.807Z,60.30
2024-01-11T17:20:37.549Z,56.20
2024-01-11T17:25:45.120Z,53.60
2024-01-11T17:30:50.309Z,48.20
2024-01-11T17:35:59.552Z,48.93
2024-01-11T17:41:07.546Z,42.03
2024-01-11T17:46:12.834Z,41.20
2024-01-11T17:51:20.599Z,40.07
2024-01-11T17:56:26.101Z,44.03
2024-01-11T18:01:34.048Z,39.67
2024-01-11T18:06:43.844Z,37.37
2024-01-11T18:11:51.722Z,35.13
2024-01-11T18:16:56.921Z,36.37
2024-01-11T18:22:05.732Z,38.53
2024-01-11T18:27:11.714Z,35.23
2024-01-11T18:32:16.887Z,42.67
2024-01-11T18:37:28.480Z,36.43
2024-01-11T18:42:33.940Z,35.87
2024-01-11T18:47:42.377Z,35.57
2024-01-11T18:52:51.845Z,36.97
2024-01-11T18:57:57.030Z,39.73
2024-01-11T19:03:02.938Z,40.47
2024-01-11T19:08:11.711Z,39.63
2024-01-11T19:13:19.777Z,39.53
2024-01-11T19:18:25.497Z,40.87
2024-01-11T19:23:36.714Z,40.60
2024-01-11T19:28:44.382Z,42.13
2024-01-11T19:33:50.039Z,43.70
2024-01-11T19:39:02.066Z,41.63
2024-01-11T19:44:09.645Z,42.47
2024-01-11T19:49:15.125Z,47.60
2024-01-11T19:54:23.490Z,46.97
2024-01-11T19:59:30.365Z,40.93
2024-01-11T20:04:36.048Z,42.53
2024-01-11T20:09:45.911Z,44.20
2024-01-11T20:14:54.110Z,46.10
2024-01-11T20:19:59.358Z,39.30
2024-01-11T20:25:07.712Z,47.07
2024-01-11T20:30:15.572Z,38.57
2024-01-11T20:35:21.423Z,36.60
2024-01-11T20:40:29.198Z,40.10
2024-01-11T20:45:34.711Z,35.57
2024-01-11T20:50:41.626Z,35.27
2024-01-11T20:55:56.318Z,34.23
2024-01-11T21:01:07.189Z,30.13
2024-01-11T21:06:14.620Z,33.57
2024-01-11T21:11:22.801Z,28.47
2024-01-11T21:16:28.076Z,32.23
2024-01-11T21:21:33.190Z,28.43
2024-01-11T21:26:41.293Z,31.50
2024-01-11T21:31:46.957Z,34.93
2024-01-11T21:36:52.092Z,31.53
2024-01-11T21:41:59.977Z,29.90
2024-01-11T21:47:05.201Z,34.90
2024-01-11T21:52:10.515Z,32.00
2024-01-11T21:57:18.237Z,30.37
2024-01-11T22:02:23.451Z,29.47
2024-01-11T22:07:28.550Z,32.80
2024-01-11T22:12:36.330Z,30.10
2024-01-11T22:17:41.551Z,29.23
2024-01-11T22:22:46.940Z,32.50
2024-01-11T22:27:57.079Z,27.67
2024-01-11T22:33:04.750Z,25.70
2024-01-11T22:38:10.107Z,31.47
2024-01-11T22:43:18.434Z,28.20
2024-01-11T22:48:23.710Z,28.10
2024-01-11T22:53:36.736Z,30.30
2024-01-11T22:58:46.983Z,28.53
2024-01-11T23:03:52.279Z,26.57
2024-01-11T23:08:57.487Z,30.10
2024-01-11T23:14:06.991Z,28.60
2024-01-11T23:19:12.082Z,32.60
2024-01-11T23:24:17.343Z,30.73
2024-01-11T23:29:26.233Z,27.13
2024-01-11T23:34:31.854Z,33.80
2024-01-11T23:39:37.174Z,34.97
2024-01-11T23:44:45.595Z,24.87
2024-01-11T23:49:50.823Z,30.13
2024-01-11T23:54:56.108Z,31.33
